Time;durP1;ratioP1;P1;durP2;ratioP2;P2;SDS_P1;SDS_P2;PMS_P1;PMS_P2;Temp;Humidity;BMP_temperature;BMP_pressure;BME280_temperature;BME280_humidity;BME280_pressure;Samples;Min_cycle;Max_cycle;Signal;HPM_P1;HPM_P2
2023/08/09 00:00:08;;;;;;;;;;;;;;;17.32;58.13;94877.41;4223945;28;19928;-79
2023/08/09 00:02:09;;;;;;;;;;;;;;;17.31;58.34;94870.47;4231552;27;20014;-79
2023/08/09 00:04:13;;;;;;;;;;;;;;;17.26;58.26;94872.91;4229324;27;20427;-79
2023/08/09 00:06:15;;;;;;;;;;;;;;;17.25;58.65;94877.38;4198056;28;20011;-79
2023/08/09 00:08:16;;;;;;;;;;;;;;;17.27;58.64;94870.06;4220681;28;19977;-77
2023/08/09 00:10:18;;;;;;;;;;;;;;;17.31;58.41;94876.56;4216278;28;19968;-80
2023/08/09 00:12:20;;;;;;;;;;;;;;;17.32;58.29;94877.41;4216663;28;19924;-82
2023/08/09 00:14:22;;;;;;;;;;;;;;;17.32;58.14;94874.75;4216249;28;19924;-78
2023/08/09 00:16:23;;;;;;;;;;;;;;;17.29;58.25;94861.91;4219542;28;20312;-79
2023/08/09 00:18:25;;;;;;;;;;;;;;;17.22;58.46;94871.66;4214856;28;19935;-79
2023/08/09 00:20:27;;;;;;;;;;;;;;;17.16;58.61;94871.44;4223840;28;20023;-80
2023/08/09 00:22:28;;;;;;;;;;;;;;;17.14;58.79;94868.16;4202492;28;19931;-82
2023/08/09 00:24:31;;;;;;;;;;;;;;;17.11;58.77;94871.19;4205273;28;20011;-81
2023/08/09 00:26:33;;;;;;;;;;;;;;;17.08;58.93;94861.00;4205338;28;19928;-78
2023/08/09 00:28:34;;;;;;;;;;;;;;;17.06;58.90;94868.31;4226261;28;20322;-80
2023/08/09 00:30:37;;;;;;;;;;;;;;;17.07;59.21;94867.28;4225297;28;19927;-82
2023/08/09 00:32:41;;;;;;;;;;;;;;;17.07;58.95;94864.63;4214617;28;19943;-78
2023/08/09 00:34:43;;;;;;;;;;;;;;;17.07;58.97;94864.63;4195199;28;19981;-78
2023/08/09 00:36:45;;;;;;;;;;;;;;;17.10;58.89;94860.78;4226699;28;19932;-80
2023/08/09 00:38:47;;;;;;;;;;;;;;;17.07;58.79;94859.34;4224454;27;19927;-79
2023/08/09 00:40:49;;;;;;;;;;;;;;;17.10;58.80;94858.97;4226685;28;19935;-82
2023/08/09 00:42:50;;;;;;;;;;;;;;;17.07;59.03;94854.03;4223615;28;19927;-79
2023/08/09 00:44:52;;;;;;;;;;;;;;;17.13;58.79;94857.75;4222470;27;20002;-80
2023/08/09 00:46:54;;;;;;;;;;;;;;;17.11;58.90;94855.28;4221522;28;20256;-80
2023/08/09 00:48:56;;;;;;;;;;;;;;;17.11;58.92;94855.28;4221644;28;20010;-79
2023/08/09 00:50:58;;;;;;;;;;;;;;;17.11;59.11;94857.94;4233408;27;19928;-79
2023/08/09 00:53:01;;;;;;;;;;;;;;;17.10;58.81;94853.69;4210992;28;19928;-78
2023/08/09 00:55:03;;;;;;;;;;;;;;;17.11;59.00;94855.28;4224433;27;19935;-79
2023/08/09 00:57:06;;;;;;;;;;;;;;;17.10;58.98;94853.69;4214419;28;20002;-82
2023/08/09 00:59:08;;;;;;;;;;;;;;;17.06;58.96;94859.56;4211876;28;19939;-80
2023/08/09 01:01:10;;;;;;;;;;;;;;;17.03;59.20;94855.44;4212300;28;20054;-80
2023/08/09 01:03:13;;;;;;;;;;;;;;;17.03;59.06;94852.81;4215308;28;20298;-80
2023/08/09 01:05:16;;;;;;;;;;;;;;;17.04;59.08;94856.28;4214809;28;19936;-79
2023/08/09 01:07:36;;;;;;;;;;;;;;;17.03;59.16;94852.81;4218868;28;19935;-79
2023/08/09 01:09:45;;;;;;;;;;;;;;;16.99;59.26;94844.47;4215703;28;19934;-80
2023/08/09 01:11:55;;;;;;;;;;;;;;;17.00;59.29;94850.56;4224127;27;20444;-79
2023/08/09 01:13:59;;;;;;;;;;;;;;;16.99;59.18;94851.56;4214047;27;19928;-81
2023/08/09 01:16:01;;;;;;;;;;;;;;;17.01;59.18;94844.25;4216063;28;20008;-80
2023/08/09 01:18:04;;;;;;;;;;;;;;;17.01;59.08;94846.88;4217347;28;19959;-80
2023/08/09 01:20:11;;;;;;;;;;;;;;;17.03;59.24;94852.81;4210691;28;20178;-79
2023/08/09 01:22:17;;;;;;;;;;;;;;;17.02;59.00;94847.72;4196475;28;20041;-81
2023/08/09 01:24:19;;;;;;;;;;;;;;;16.95;59.11;94845.00;4214977;27;19947;-79
2023/08/09 01:26:21;;;;;;;;;;;;;;;16.92;59.40;94856.00;4218447;27;20082;-79
2023/08/09 01:28:24;;;;;;;;;;;;;;;16.91;59.39;94849.91;4226744;27;19935;-80
2023/08/09 01:30:26;;;;;;;;;;;;;;;16.91;59.51;94857.03;4228314;27;20240;-80
2023/08/09 01:32:28;;;;;;;;;;;;;;;16.86;59.32;94854.13;4202857;28;19974;-80
2023/08/09 01:34:30;;;;;;;;;;;;;;;16.79;59.76;94851.41;4199896;28;19925;-83
2023/08/09 01:36:40;;;;;;;;;;;;;;;16.76;59.75;94854.47;4222946;27;20386;-81
2023/08/09 01:38:44;;;;;;;;;;;;;;;16.76;59.81;94846.50;4198281;28;20061;-80
2023/08/09 01:40:46;;;;;;;;;;;;;;;16.79;59.73;94849.56;4204206;28;19932;-80
2023/08/09 01:42:47;;;;;;;;;;;;;;;16.83;59.79;94847.41;4206480;28;19924;-79
2023/08/09 01:44:50;;;;;;;;;;;;;;;16.79;59.85;94856.69;4202273;28;19928;-80
2023/08/09 01:46:52;;;;;;;;;;;;;;;16.77;59.77;94856.06;4224623;27;19931;-80
2023/08/09 01:49:06;;;;;;;;;;;;;;;16.74;59.90;94853.84;4204087;28;20016;-78
2023/08/09 01:51:08;;;;;;;;;;;;;;;16.74;59.79;94849.34;4227309;28;19958;-80
2023/08/09 01:53:11;;;;;;;;;;;;;;;16.78;59.63;94863.81;4209175;28;20016;-78
2023/08/09 01:55:14;;;;;;;;;;;;;;;16.78;59.69;94858.53;4225207;28;19932;-83
2023/08/09 01:57:15;;;;;;;;;;;;;;;16.75;59.78;94853.63;4203144;28;19935;-80
2023/08/09 01:59:18;;;;;;;;;;;;;;;16.71;59.78;94860.31;4220298;28;19924;-79
2023/08/09 02:01:20;;;;;;;;;;;;;;;16.64;59.89;94859.44;4226098;27;19970;-79
2023/08/09 02:03:22;;;;;;;;;;;;;;;16.65;59.98;94863.75;4228574;27;20005;-79
2023/08/09 02:05:23;;;;;;;;;;;;;;;16.58;59.97;94861.06;4216838;28;20015;-80
2023/08/09 02:07:25;;;;;;;;;;;;;;;16.59;60.26;94861.84;4216101;28;20014;-79
2023/08/09 02:09:28;;;;;;;;;;;;;;;16.63;60.19;94856.97;4224781;28;20022;-79
2023/08/09 02:11:30;;;;;;;;;;;;;;;16.59;60.08;94857.38;4218606;28;20046;-80
2023/08/09 02:13:32;;;;;;;;;;;;;;;16.58;60.16;94857.56;4227321;28;19927;-79
2023/08/09 02:15:34;;;;;;;;;;;;;;;16.55;60.28;94857.97;4225632;27;20285;-80
2023/08/09 02:17:38;;;;;;;;;;;;;;;16.55;60.15;94856.13;4225429;28;20466;-78
2023/08/09 02:19:40;;;;;;;;;;;;;;;16.58;60.09;94858.41;4222571;28;20371;-80
2023/08/09 02:21:42;;;;;;;;;;;;;;;16.56;60.09;94860.41;4229263;28;19938;-79
2023/08/09 02:23:44;;;;;;;;;;;;;;;16.56;59.98;94857.78;4210343;28;20379;-81
2023/08/09 02:25:46;;;;;;;;;;;;;;;16.59;60.08;94859.22;4217751;28;19927;-81
2023/08/09 02:27:48;;;;;;;;;;;;;;;16.57;60.51;94863.88;4237155;27;20004;-79
2023/08/09 02:29:49;;;;;;;;;;;;;;;16.61;59.86;94859.03;4204805;28;20370;-81
2023/08/09 02:31:52;;;;;;;;;;;;;;;16.58;59.98;94853.13;4220662;28;20390;-79
2023/08/09 02:33:55;;;;;;;;;;;;;;;16.58;59.95;94858.41;4227142;27;20401;-80
2023/08/09 02:35:58;;;;;;;;;;;;;;;16.52;60.28;94861.81;4208372;28;19936;-78
2023/08/09 02:37:59;;;;;;;;;;;;;;;16.51;60.45;94862.00;4206373;28;19935;-79
2023/08/09 02:40:02;;;;;;;;;;;;;;;16.42;60.18;94863.16;4217405;28;19931;-81
2023/08/09 02:42:03;;;;;;;;;;;;;;;16.27;60.83;94873.81;4209342;28;19938;-79
2023/08/09 02:44:05;;;;;;;;;;;;;;;16.23;61.16;94869.91;4201573;28;19964;-78
2023/08/09 02:46:07;;;;;;;;;;;;;;;16.18;61.20;94873.91;4227223;27;19931;-78
2023/08/09 02:48:09;;;;;;;;;;;;;;;16.18;61.22;94871.28;4215310;28;19923;-80
2023/08/09 02:50:11;;;;;;;;;;;;;;;16.26;61.09;94875.63;4219828;28;19970;-80
2023/08/09 02:52:15;;;;;;;;;;;;;;;16.28;60.95;94870.13;4229379;28;20013;-80
2023/08/09 02:54:19;;;;;;;;;;;;;;;16.28;61.02;94875.41;4227518;28;20373;-80
2023/08/09 02:56:21;;;;;;;;;;;;;;;16.28;61.05;94878.91;4207592;28;20303;-79
2023/08/09 02:58:24;;;;;;;;;;;;;;;16.27;60.99;94876.44;4221599;28;19940;-80
2023/08/09 03:00:26;;;;;;;;;;;;;;;16.26;61.05;94878.28;4251722;27;20406;-78
2023/08/09 03:02:28;;;;;;;;;;;;;;;16.27;61.08;94876.44;4200280;28;19932;-79
2023/08/09 03:04:30;;;;;;;;;;;;;;;16.31;61.00;94875.88;4227275;28;19947;-79
2023/08/09 03:06:32;;;;;;;;;;;;;;;16.28;60.98;94878.91;4226178;28;20329;-79
2023/08/09 03:08:36;;;;;;;;;;;;;;;16.28;61.07;94878.06;4226268;28;19987;-81
2023/08/09 03:10:38;;;;;;;;;;;;;;;16.25;61.22;94881.91;4224423;28;20367;-83
2023/08/09 03:12:40;;;;;;;;;;;;;;;16.29;61.15;94877.88;4192939;28;20379;-82
2023/08/09 03:14:42;;;;;;;;;;;;;;;16.33;60.91;94884.44;4211897;28;19924;-78
2023/08/09 03:16:45;;;;;;;;;;;;;;;16.30;61.12;94884.78;4213209;28;20556;-80
2023/08/09 03:18:47;;;;;;;;;;;;;;;16.31;61.40;94885.63;4205663;28;20370;-79
2023/08/09 03:20:50;;;;;;;;;;;;;;;16.30;61.48;94887.44;4212702;27;19932;-80
2023/08/09 03:22:55;;;;;;;;;;;;;;;16.26;61.81;94888.00;4213924;28;19978;-79
2023/08/09 03:24:59;;;;;;;;;;;;;;;16.28;61.78;94886.84;4222115;28;19924;-80
2023/08/09 03:27:02;;;;;;;;;;;;;;;16.26;61.73;94888.84;4218869;28;20101;-81
2023/08/09 03:29:05;;;;;;;;;;;;;;;16.26;62.04;94888.84;4224403;27;19928;-80
2023/08/09 03:31:07;;;;;;;;;;;;;;;16.28;61.86;94886.84;4219326;27;19967;-80
2023/08/09 03:33:08;;;;;;;;;;;;;;;16.29;61.91;94885.81;4226721;28;19927;-79
2023/08/09 03:35:10;;;;;;;;;;;;;;;16.29;61.87;94891.09;4215596;28;19954;-80
2023/08/09 03:37:18;;;;;;;;;;;;;;;16.33;61.81;94892.38;4225912;27;20246;-81
2023/08/09 03:39:21;;;;;;;;;;;;;;;16.33;61.85;94895.00;4202452;28;20336;-81
2023/08/09 03:41:23;;;;;;;;;;;;;;;16.35;61.95;94895.63;4218787;28;20375;-80
2023/08/09 03:43:27;;;;;;;;;;;;;;;16.32;61.58;94900.47;4221038;28;20031;-80
2023/08/09 03:45:28;;;;;;;;;;;;;;;16.12;61.73;94902.94;4230413;28;19924;-81
2023/08/09 03:47:30;;;;;;;;;;;;;;;15.93;62.10;94907.81;4202133;28;20365;-78
2023/08/09 03:49:33;;;;;;;;;;;;;;;15.67;62.95;94912.78;4231041;28;19963;-80
2023/08/09 03:51:35;;;;;;;;;;;;;;;15.50;63.68;94907.69;4231188;27;19928;-80
2023/08/09 03:53:38;;;;;;;;;;;;;;;15.47;63.98;94913.34;4255022;27;19927;-78
2023/08/09 03:55:39;;;;;;;;;;;;;;;15.42;63.92;94909.63;4245489;28;19924;-79
2023/08/09 03:57:41;;;;;;;;;;;;;;;15.35;64.20;94906.88;4218119;28;19951;-79
2023/08/09 03:59:43;;;;;;;;;;;;;;;15.40;64.20;94912.47;4230765;28;19941;-79
2023/08/09 04:01:44;;;;;;;;;;;;;;;15.48;64.09;94916.81;4236400;28;19942;-79
2023/08/09 04:03:47;;;;;;;;;;;;;;;15.63;64.38;94911.50;4241976;28;19995;-81
2023/08/09 04:05:49;;;;;;;;;;;;;;;15.76;63.90;94914.31;4247700;27;19936;-80
2023/08/09 04:07:50;;;;;;;;;;;;;;;15.88;63.36;94915.50;4236690;28;19998;-81
2023/08/09 04:09:52;;;;;;;;;;;;;;;15.93;63.12;94915.75;4216066;28;19942;-79
2023/08/09 04:11:54;;;;;;;;;;;;;;;16.02;62.80;94915.63;4228459;28;19924;-80
2023/08/09 04:13:56;;;;;;;;;;;;;;;15.88;62.59;94917.31;4240241;28;19923;-80
2023/08/09 04:15:58;;;;;;;;;;;;;;;15.88;63.29;94912.03;4238801;28;19916;-80
2023/08/09 04:18:00;;;;;;;;;;;;;;;16.04;62.95;94910.97;4219437;28;19939;-80
2023/08/09 04:20:04;;;;;;;;;;;;;;;16.17;62.53;94916.38;4232459;28;20255;-82
2023/08/09 04:22:09;;;;;;;;;;;;;;;16.29;62.60;94914.88;4202459;28;20008;-81
2023/08/09 04:24:11;;;;;;;;;;;;;;;16.36;62.58;94923.69;4227006;28;20022;-79
2023/08/09 04:26:12;;;;;;;;;;;;;;;16.36;62.52;94923.69;4224596;28;19923;-80
2023/08/09 04:28:14;;;;;;;;;;;;;;;16.40;62.57;94915.41;4211605;28;19966;-81
2023/08/09 04:30:16;;;;;;;;;;;;;;;16.46;62.37;94918.09;4235713;28;19970;-80
2023/08/09 04:32:18;;;;;;;;;;;;;;;16.51;62.26;94912.25;4233128;28;19928;-79
2023/08/09 04:34:20;;;;;;;;;;;;;;;16.59;62.13;94920.84;4219608;28;20400;-81
2023/08/09 04:36:21;;;;;;;;;;;;;;;16.70;61.93;94918.72;4214929;28;19950;-82
2023/08/09 04:38:23;;;;;;;;;;;;;;;16.76;61.51;94915.31;4222976;28;20018;-81
2023/08/09 04:40:25;;;;;;;;;;;;;;;16.57;61.79;94911.47;4208799;28;20010;-82
2023/08/09 04:42:27;;;;;;;;;;;;;;;16.65;62.16;94914.00;4227655;28;20671;-81
2023/08/09 04:44:28;;;;;;;;;;;;;;;16.84;61.52;94915.16;4225169;28;19924;-81
2023/08/09 04:46:30;;;;;;;;;;;;;;;16.93;61.29;94914.03;4213910;28;20354;-81
2023/08/09 04:48:32;;;;;;;;;;;;;;;16.97;61.40;94907.34;4225313;28;19936;-81
2023/08/09 04:50:34;;;;;;;;;;;;;;;16.90;61.28;94922.34;4215276;28;19935;-81
2023/08/09 04:52:36;;;;;;;;;;;;;;;16.83;61.58;94918.84;4225650;28;19946;-82
2023/08/09 04:54:38;;;;;;;;;;;;;;;16.45;61.62;94921.75;4224828;28;19923;-81
2023/08/09 04:56:40;;;;;;;;;;;;;;;16.30;62.41;94927.09;4227795;28;19923;-82
2023/08/09 04:58:42;;;;;;;;;;;;;;;16.26;62.87;94917.09;4226923;28;19939;-82
2023/08/09 05:00:46;;;;;;;;;;;;;;;16.22;62.55;94919.31;4219104;28;20474;-80
2023/08/09 05:02:48;;;;;;;;;;;;;;;16.21;62.91;94922.13;4200068;28;19925;-80
2023/08/09 05:04:50;;;;;;;;;;;;;;;16.26;62.88;94923.22;4214002;28;19924;-81
2023/08/09 05:06:53;;;;;;;;;;;;;;;16.40;62.48;94924.16;4220340;28;20053;-82
2023/08/09 05:08:54;;;;;;;;;;;;;;;16.57;62.02;94922.88;4230187;28;19939;-84
2023/08/09 05:10:56;;;;;;;;;;;;;;;16.67;61.49;94925.19;4227308;28;19931;-85
2023/08/09 05:12:58;;;;;;;;;;;;;;;16.59;61.87;94927.97;4219344;28;19946;-83
2023/08/09 05:15:03;;;;;;;;;;;;;;;16.66;61.82;94930.69;4228263;28;19934;-82
2023/08/09 05:17:06;;;;;;;;;;;;;;;16.82;61.66;94930.44;4183820;28;19925;-79
2023/08/09 05:19:08;;;;;;;;;;;;;;;16.99;60.55;94937.09;4201621;28;19974;-80
2023/08/09 05:21:10;;;;;;;;;;;;;;;16.88;60.12;94939.41;4216015;28;19928;-81
2023/08/09 05:23:11;;;;;;;;;;;;;;;16.52;61.48;94948.25;4220460;28;20053;-78
2023/08/09 05:25:14;;;;;;;;;;;;;;;16.35;61.77;94940.56;4217038;28;20082;-79
2023/08/09 05:27:16;;;;;;;;;;;;;;;16.18;62.55;94944.47;4238016;27;19928;-84
2023/08/09 05:29:19;;;;;;;;;;;;;;;16.19;62.79;94946.09;4207607;28;20051;-79
2023/08/09 05:31:21;;;;;;;;;;;;;;;16.28;62.32;94949.44;4218411;28;19927;-81
2023/08/09 05:33:25;;;;;;;;;;;;;;;16.31;62.29;94941.16;4199829;28;19931;-78
2023/08/09 05:35:27;;;;;;;;;;;;;;;16.35;62.31;94943.22;4229374;27;19954;-80
2023/08/09 05:37:30;;;;;;;;;;;;;;;16.44;62.29;94941.28;4219240;27;20019;-82
2023/08/09 05:39:31;;;;;;;;;;;;;;;16.62;61.61;94932.88;4236515;27;20046;-80
2023/08/09 05:41:33;;;;;;;;;;;;;;;16.71;61.49;94941.50;4224608;28;20025;-82
2023/08/09 05:43:35;;;;;;;;;;;;;;;16.77;61.25;94936.25;4227489;28;19957;-79
2023/08/09 05:45:36;;;;;;;;;;;;;;;16.69;60.84;94933.78;4226556;28;19961;-80
2023/08/09 05:47:38;;;;;;;;;;;;;;;16.66;61.18;94934.13;4227327;28;20640;-79
2023/08/09 05:49:40;;;;;;;;;;;;;;;16.76;61.09;94942.56;4210554;28;19932;-81
2023/08/09 05:51:42;;;;;;;;;;;;;;;16.72;60.88;94936.00;4225402;28;20298;-81
2023/08/09 05:53:44;;;;;;;;;;;;;;;16.71;61.02;94936.19;4230061;27;19927;-79
2023/08/09 05:55:45;;;;;;;;;;;;;;;16.78;60.83;94937.91;4213292;28;19924;-81
2023/08/09 05:57:47;;;;;;;;;;;;;;;16.75;60.62;94940.91;4236331;27;19955;-80
2023/08/09 05:59:48;;;;;;;;;;;;;;;16.45;61.24;94940.25;4230538;28;20075;-79
2023/08/09 06:01:50;;;;;;;;;;;;;;;16.43;61.74;94936.16;4229233;28;19934;-80
2023/08/09 06:03:52;;;;;;;;;;;;;;;16.45;61.27;94939.44;4228127;28;20452;-80
2023/08/09 06:05:55;;;;;;;;;;;;;;;16.43;61.62;94928.22;4210780;28;20329;-81
2023/08/09 06:07:57;;;;;;;;;;;;;;;16.57;61.56;94930.00;4211251;28;20025;-80
2023/08/09 06:09:58;;;;;;;;;;;;;;;16.66;61.10;94936.78;4194154;28;19959;-80
2023/08/09 06:12:04;;;;;;;;;;;;;;;16.72;60.96;94937.84;4227971;28;19932;-81
2023/08/09 06:14:06;;;;;;;;;;;;;;;16.82;60.81;94932.25;4229235;27;20371;-82
2023/08/09 06:16:08;;;;;;;;;;;;;;;16.92;60.26;94933.56;4204168;28;19951;-80
2023/08/09 06:18:09;;;;;;;;;;;;;;;16.76;60.96;94934.63;4217385;28;19932;-80
2023/08/09 06:20:14;;;;;;;;;;;;;;;16.90;60.75;94926.81;4227763;28;19923;-80
2023/08/09 06:22:16;;;;;;;;;;;;;;;16.96;60.43;94934.00;4219816;27;19978;-80
2023/08/09 06:24:18;;;;;;;;;;;;;;;16.98;60.17;94934.63;4221012;28;19986;-83
2023/08/09 06:26:20;;;;;;;;;;;;;;;17.12;60.12;94923.13;4197865;28;19928;-79
2023/08/09 06:28:22;;;;;;;;;;;;;;;17.28;60.11;94918.53;4229627;28;19923;-80
2023/08/09 06:30:23;;;;;;;;;;;;;;;17.25;59.47;94913.59;4194655;28;19928;-80
2023/08/09 06:32:25;;;;;;;;;;;;;;;17.37;59.49;94917.34;4222403;28;19996;-81
2023/08/09 06:34:27;;;;;;;;;;;;;;;17.49;59.21;94909.69;4219222;28;20020;-79
2023/08/09 06:36:31;;;;;;;;;;;;;;;17.42;59.14;94911.47;4215666;28;19924;-81
2023/08/09 06:38:32;;;;;;;;;;;;;;;17.54;58.67;94921.31;4226689;28;19968;-82
2023/08/09 06:40:34;;;;;;;;;;;;;;;17.66;58.51;94916.28;4230424;28;19966;-81
2023/08/09 06:42:36;;;;;;;;;;;;;;;17.83;58.54;94916.75;4232409;27;20027;-79
2023/08/09 06:44:38;;;;;;;;;;;;;;;17.93;57.83;94916.38;4241259;27;21298;-79
2023/08/09 06:46:40;;;;;;;;;;;;;;;17.96;57.60;94919.47;4224067;28;19928;-79
2023/08/09 06:48:42;;;;;;;;;;;;;;;17.94;57.18;94912.72;4222157;28;19955;-81
2023/08/09 06:50:43;;;;;;;;;;;;;;;18.10;56.92;94916.84;4225956;28;20020;-80
2023/08/09 06:52:46;;;;;;;;;;;;;;;18.32;56.31;94913.00;4210209;28;19931;-82
2023/08/09 06:54:47;;;;;;;;;;;;;;;18.05;56.38;94912.16;4209154;28;20572;-79
2023/08/09 06:56:53;;;;;;;;;;;;;;;18.17;56.60;94909.72;4228582;28;20335;-81
2023/08/09 06:58:55;;;;;;;;;;;;;;;18.32;56.13;94891.78;4226259;28;19928;-83
2023/08/09 07:00:57;;;;;;;;;;;;;;;18.43;55.95;94900.97;4220662;28;19924;-81
2023/08/09 07:02:59;;;;;;;;;;;;;;;18.52;55.43;94898.94;4209576;28;19928;-81
2023/08/09 07:05:02;;;;;;;;;;;;;;;18.45;55.91;94906.09;4206882;28;19928;-83
2023/08/09 07:07:06;;;;;;;;;;;;;;;18.42;56.63;94904.66;4180849;28;19929;-80
2023/08/09 07:09:11;;;;;;;;;;;;;;;18.61;55.56;94897.75;4238946;27;20010;-81
2023/08/09 07:11:13;;;;;;;;;;;;;;;18.55;55.44;94893.25;4228928;28;20289;-82
2023/08/09 07:13:14;;;;;;;;;;;;;;;18.66;55.35;94891.81;4233771;27;19924;-80
2023/08/09 07:15:17;;;;;;;;;;;;;;;18.81;55.43;94895.13;4209817;28;20293;-79
2023/08/09 07:17:19;;;;;;;;;;;;;;;18.86;54.63;94903.28;4217458;28;19930;-80
2023/08/09 07:19:21;;;;;;;;;;;;;;;18.70;54.46;94896.53;4217276;28;20398;-81
2023/08/09 07:21:24;;;;;;;;;;;;;;;18.57;54.83;94892.03;4217881;28;20332;-80
2023/08/09 07:23:27;;;;;;;;;;;;;;;18.57;55.28;94891.22;4216970;27;19925;-80
2023/08/09 07:25:49;;;;;;;;;;;;;;;18.73;55.39;94889.97;4206590;28;19928;-83
2023/08/09 07:27:51;;;;;;;;;;;;;;;19.07;54.92;94886.28;4221823;28;20287;-80
2023/08/09 07:29:54;;;;;;;;;;;;;;;19.14;54.15;94883.63;4212773;28;19939;-81
2023/08/09 07:31:55;;;;;;;;;;;;;;;19.10;54.37;94875.28;4217486;27;19958;-80
2023/08/09 07:33:57;;;;;;;;;;;;;;;19.04;53.89;94884.06;4201888;28;19938;-81
2023/08/09 07:36:00;;;;;;;;;;;;;;;18.78;54.54;94874.31;4197033;28;20328;-80
2023/08/09 07:38:02;;;;;;;;;;;;;;;18.99;54.72;94878.53;4199685;28;19928;-80
2023/08/09 07:40:04;;;;;;;;;;;;;;;19.05;53.76;94874.25;4228390;28;20018;-80
2023/08/09 07:42:06;;;;;;;;;;;;;;;18.99;53.50;94873.22;4228351;28;19927;-81
2023/08/09 07:44:07;;;;;;;;;;;;;;;19.13;53.66;94879.34;4219322;28;20459;-80
2023/08/09 07:46:10;;;;;;;;;;;;;;;19.11;53.64;94879.56;4222586;28;20371;-79
2023/08/09 07:48:15;;;;;;;;;;;;;;;19.04;53.56;94873.44;4180971;28;19971;-79
2023/08/09 07:50:16;;;;;;;;;;;;;;;19.15;53.37;94874.66;4218064;28;19923;-80
2023/08/09 07:52:18;;;;;;;;;;;;;;;19.47;52.75;94880.06;4225070;27;19928;-80
2023/08/09 07:54:19;;;;;;;;;;;;;;;19.83;51.96;94872.41;4227846;28;19927;-81
2023/08/09 07:56:21;;;;;;;;;;;;;;;20.18;50.68;94874.66;4193125;28;20015;-81
2023/08/09 07:58:25;;;;;;;;;;;;;;;20.39;50.64;94876.16;4220743;28;20012;-79
2023/08/09 08:00:27;;;;;;;;;;;;;;;20.63;49.96;94871.91;4226600;28;19924;-81
2023/08/09 08:02:43;;;;;;;;;;;;;;;20.66;48.88;94868.00;4213033;28;19978;-80
2023/08/09 08:04:48;;;;;;;;;;;;;;;20.80;48.87;94866.00;4187980;28;19928;-84
2023/08/09 08:06:50;;;;;;;;;;;;;;;21.01;48.65;94860.28;4216466;28;20016;-79
2023/08/09 08:08:51;;;;;;;;;;;;;;;20.96;48.27;94868.13;4224593;28;20031;-79
2023/08/09 08:10:57;;;;;;;;;;;;;;;20.92;47.76;94866.94;4224974;28;19977;-84
2023/08/09 08:12:59;;;;;;;;;;;;;;;20.43;48.58;94864.06;4215380;28;19928;-81
2023/08/09 08:15:00;;;;;;;;;;;;;;;20.40;49.64;94869.78;4231045;28;19934;-82
2023/08/09 08:17:02;;;;;;;;;;;;;;;20.72;49.23;94855.66;4228053;28;19924;-80
2023/08/09 08:19:04;;;;;;;;;;;;;;;20.82;48.49;94855.97;4228925;28;19959;-81
2023/08/09 08:21:05;;;;;;;;;;;;;;;20.84;48.65;94860.06;4239799;28;19949;-82
2023/08/09 08:23:07;;;;;;;;;;;;;;;20.56;48.05;94854.31;4252577;27;19954;-80
2023/08/09 08:25:10;;;;;;;;;;;;;;;20.36;48.80;94863.28;4244713;28;19995;-80
2023/08/09 08:27:12;;;;;;;;;;;;;;;20.41;48.95;94863.44;4233433;28;19924;-83
2023/08/09 08:29:14;;;;;;;;;;;;;;;20.64;48.25;94864.72;4221787;28;19923;-80
2023/08/09 08:31:19;;;;;;;;;;;;;;;20.71;47.91;94854.03;4244797;28;20386;-81
2023/08/09 08:33:21;;;;;;;;;;;;;;;20.54;48.32;94859.03;4244458;28;19972;-81
2023/08/09 08:35:24;;;;;;;;;;;;;;;20.63;48.64;94860.44;4237233;28;19934;-80
2023/08/09 08:37:26;;;;;;;;;;;;;;;20.94;48.03;94853.41;4223686;28;19961;-81
2023/08/09 08:39:29;;;;;;;;;;;;;;;21.01;47.73;94854.16;4212955;28;19928;-80
2023/08/09 08:41:31;;;;;;;;;;;;;;;21.04;47.71;94849.22;4225946;28;20019;-81
2023/08/09 08:43:34;;;;;;;;;;;;;;;21.02;47.92;94853.13;4245038;28;19927;-83
2023/08/09 08:45:38;;;;;;;;;;;;;;;21.15;48.27;94839.69;4244787;28;20002;-81
2023/08/09 08:47:41;;;;;;;;;;;;;;;21.48;47.50;94843.84;4227279;28;19931;-82
2023/08/09 08:49:44;;;;;;;;;;;;;;;21.81;47.00;94835.44;4226841;28;19957;-82
2023/08/09 08:51:54;;;;;;;;;;;;;;;22.03;46.34;94841.09;4245858;27;19923;-83
2023/08/09 08:53:55;;;;;;;;;;;;;;;22.31;46.29;94833.53;4235694;28;19924;-82
2023/08/09 08:55:57;;;;;;;;;;;;;;;22.46;45.46;94829.38;4233160;28;19951;-79
2023/08/09 08:57:59;;;;;;;;;;;;;;;22.56;45.66;94828.00;4228564;27;20272;-83
2023/08/09 09:00:08;;;;;;;;;;;;;;;22.69;45.32;94825.09;4247353;27;20030;-82
2023/08/09 09:02:19;;;;;;;;;;;;;;;22.86;45.06;94818.00;4230134;27;19995;-81
2023/08/09 09:04:21;;;;;;;;;;;;;;;22.78;44.34;94818.38;4242880;27;20037;-84
2023/08/09 09:06:23;;;;;;;;;;;;;;;22.46;44.61;94813.38;4224231;28;19932;-81
2023/08/09 09:08:25;;;;;;;;;;;;;;;22.47;44.81;94819.50;4243361;27;19980;-80
2023/08/09 09:10:27;;;;;;;;;;;;;;;22.28;45.29;94810.78;4222053;28;19966;-82
2023/08/09 09:12:29;;;;;;;;;;;;;;;22.35;45.68;94814.19;4236101;27;20106;-83
2023/08/09 09:14:30;;;;;;;;;;;;;;;22.61;45.53;94815.59;4248429;27;20004;-82
2023/08/09 09:16:32;;;;;;;;;;;;;;;22.49;44.77;94807.56;4243726;27;19923;-81
2023/08/09 09:18:40;;;;;;;;;;;;;;;22.68;45.07;94812.81;4217745;28;20551;-82
2023/08/09 09:20:42;;;;;;;;;;;;;;;22.63;44.63;94808.16;4243434;27;20016;-81
2023/08/09 09:22:44;;;;;;;;;;;;;;;22.67;44.54;94803.16;4248845;27;19923;-85
2023/08/09 09:24:45;;;;;;;;;;;;;;;22.85;44.84;94799.56;4247709;27;19934;-81
2023/08/09 09:26:52;;;;;;;;;;;;;;;23.02;44.48;94795.19;4225506;28;20065;-83
2023/08/09 09:28:54;;;;;;;;;;;;;;;23.13;44.06;94798.06;4240741;27;20011;-81
2023/08/09 09:30:57;;;;;;;;;;;;;;;23.12;45.24;94793.75;4243730;27;20057;-80
2023/08/09 09:33:00;;;;;;;;;;;;;;;23.16;44.00;94793.06;4240287;27;19977;-80
2023/08/09 09:35:02;;;;;;;;;;;;;;;23.31;43.76;94787.22;4225217;28;19927;-81
2023/08/09 09:37:04;;;;;;;;;;;;;;;23.52;43.79;94791.91;4222212;27;19927;-82
2023/08/09 09:39:12;;;;;;;;;;;;;;;23.56;44.21;94783.44;4231680;27;19931;-85
2023/08/09 09:41:15;;;;;;;;;;;;;;;23.34;43.93;94792.09;4245823;27;21313;-79
2023/08/09 09:43:16;;;;;;;;;;;;;;;23.04;43.52;94792.28;4223975;27;20405;-82
2023/08/09 09:45:20;;;;;;;;;;;;;;;22.79;44.13;94779.94;4246168;27;19928;-81
2023/08/09 09:47:24;;;;;;;;;;;;;;;22.85;43.98;94776.34;4251086;27;19930;-83
2023/08/09 09:49:25;;;;;;;;;;;;;;;23.04;44.12;94770.91;4218969;27;19932;-80
2023/08/09 09:51:27;;;;;;;;;;;;;;;23.35;43.30;94766.19;4245607;27;19934;-84
2023/08/09 09:53:29;;;;;;;;;;;;;;;23.64;43.37;94777.69;4246899;27;20643;-84
2023/08/09 09:55:32;;;;;;;;;;;;;;;23.66;42.22;94763.06;4220593;28;20022;-80
2023/08/09 09:57:33;;;;;;;;;;;;;;;23.81;41.65;94770.56;4241365;27;19932;-82
2023/08/09 09:59:35;;;;;;;;;;;;;;;23.89;41.71;94772.84;4234034;27;19973;-84
2023/08/09 10:01:39;;;;;;;;;;;;;;;23.54;40.86;94764.94;4222001;27;19931;-80
2023/08/09 10:03:42;;;;;;;;;;;;;;;23.76;40.61;94767.00;4242807;27;19934;-83
2023/08/09 10:05:54;;;;;;;;;;;;;;;24.12;40.62;94760.41;4245450;27;20370;-82
2023/08/09 10:07:56;;;;;;;;;;;;;;;24.25;39.96;94754.72;4228775;28;19975;-82
2023/08/09 10:10:02;;;;;;;;;;;;;;;24.50;39.68;94754.34;4246700;27;19933;-82
2023/08/09 10:12:07;;;;;;;;;;;;;;;24.50;39.99;94756.19;4222820;27;20023;-81
2023/08/09 10:14:09;;;;;;;;;;;;;;;24.41;40.28;94753.09;4225000;28;19940;-83
2023/08/09 10:16:10;;;;;;;;;;;;;;;23.81;40.53;94753.69;4227943;28;20027;-81
2023/08/09 10:18:15;;;;;;;;;;;;;;;23.60;41.56;94749.81;4250054;27;19955;-82
2023/08/09 10:20:18;;;;;;;;;;;;;;;23.86;40.90;94745.78;4260270;27;19955;-78
2023/08/09 10:22:20;;;;;;;;;;;;;;;23.87;41.19;94742.03;4253461;27;20394;-83
2023/08/09 10:24:22;;;;;;;;;;;;;;;23.97;40.91;94736.88;4229644;28;19928;-83
2023/08/09 10:26:27;;;;;;;;;;;;;;;24.05;41.36;94744.50;4226417;28;19964;-82
2023/08/09 10:28:41;;;;;;;;;;;;;;;24.07;40.65;94731.69;4248304;27;19935;-81
2023/08/09 10:30:44;;;;;;;;;;;;;;;23.92;40.90;94720.75;4257738;27;19978;-81
2023/08/09 10:32:49;;;;;;;;;;;;;;;23.69;40.97;94721.66;4237376;27;19912;-81
2023/08/09 10:34:54;;;;;;;;;;;;;;;23.57;41.41;94723.56;4243092;27;19964;-79
2023/08/09 10:36:56;;;;;;;;;;;;;;;23.05;42.24;94725.22;4244114;27;19931;-82
2023/08/09 10:38:58;;;;;;;;;;;;;;;23.04;42.51;94723.63;4248333;27;19934;-82